Time;durP1;ratioP1;P1;durP2;ratioP2;P2;SDS_P1;SDS_P2;PMS_P1;PMS_P2;Temp;Humidity;BMP_temperature;BMP_pressure;BME280_temperature;BME280_humidity;BME280_pressure;Samples;Min_cycle;Max_cycle;Signal;HPM_P1;HPM_P2
2022/01/10 00:01:45;;;;;;;1.50;0.85;;;;;;;;;;4995377;28;20179;-20
2022/01/10 00:04:11;;;;;;;1.88;1.10;;;;;;;;;;4995294;28;20041;-21
2022/01/10 00:06:37;;;;;;;1.83;0.90;;;;;;;;;;4994263;28;20046;-20
2022/01/10 00:09:04;;;;;;;0.88;0.80;;;;;;;;;;4995880;28;20019;-20
2022/01/10 00:11:31;;;;;;;1.33;0.85;;;;;;;;;;4995557;28;20026;-21
2022/01/10 00:13:57;;;;;;;1.00;0.90;;;;;;;;;;4995230;28;20453;-22
2022/01/10 00:16:24;;;;;;;0.93;0.80;;;;;;;;;;4995269;28;20022;-20
2022/01/10 00:18:50;;;;;;;2.17;1.00;;;;;;;;;;4995215;28;20041;-20
2022/01/10 00:21:16;;;;;;;2.88;0.80;;;;;;;;;;4994294;28;20474;-21
2022/01/10 00:23:42;;;;;;;1.85;0.70;;;;;;;;;;4995080;28;20030;-20
2022/01/10 00:26:09;;;;;;;1.77;1.25;;;;;;;;;;4995410;28;20101;-21
2022/01/10 00:28:35;;;;;;;1.17;0.80;;;;;;;;;;4995371;28;20026;-20
2022/01/10 00:31:01;;;;;;;2.33;1.13;;;;;;;;;;4994130;28;20506;-20
2022/01/10 00:33:27;;;;;;;1.52;1.17;;;;;;;;;;4994991;28;20034;-21
2022/01/10 00:35:53;;;;;;;1.33;1.20;;;;;;;;;;4997875;28;20037;-21
2022/01/10 00:38:20;;;;;;;2.03;1.20;;;;;;;;;;4999357;28;20030;-21
2022/01/10 00:40:49;;;;;;;1.90;0.98;;;;;;;;;;4999218;28;20072;-21
2022/01/10 00:43:19;;;;;;;1.10;0.95;;;;;;;;;;4999183;28;20354;-23
2022/01/10 00:45:45;;;;;;;1.40;1.08;;;;;;;;;;4999309;28;20057;-21
2022/01/10 00:48:12;;;;;;;1.58;1.00;;;;;;;;;;4998914;28;20434;-20
2022/01/10 00:50:38;;;;;;;1.17;1.02;;;;;;;;;;4999385;28;20030;-21
2022/01/10 00:53:04;;;;;;;0.85;0.85;;;;;;;;;;4999051;28;20055;-21
2022/01/10 00:55:30;;;;;;;2.08;1.10;;;;;;;;;;4998810;28;20113;-21
2022/01/10 00:57:57;;;;;;;1.48;1.05;;;;;;;;;;4998766;28;20031;-21
2022/01/10 01:00:23;;;;;;;2.72;1.15;;;;;;;;;;4997719;28;20469;-20
2022/01/10 01:02:49;;;;;;;1.00;0.90;;;;;;;;;;4998546;28;20026;-20
2022/01/10 01:05:18;;;;;;;2.35;1.00;;;;;;;;;;4998666;28;20046;-21
2022/01/10 01:07:44;;;;;;;1.70;0.95;;;;;;;;;;4998901;28;20061;-20
2022/01/10 01:13:01;;;;;;;1.55;0.80;;;;;;;;;;4998460;28;20339;-20
2022/01/10 01:15:33;;;;;;;2.22;1.20;;;;;;;;;;4998454;28;20030;-20
2022/01/10 01:18:15;;;;;;;2.30;1.00;;;;;;;;;;4998442;28;20030;-21
2022/01/10 01:25:53;;;;;;;2.38;0.95;;;;;;;;;;4998647;28;20045;-21
2022/01/10 01:28:20;;;;;;;1.65;1.00;;;;;;;;;;4998283;28;20034;-21
2022/01/10 01:30:46;;;;;;;2.75;0.88;;;;;;;;;;4998232;28;20034;-21
2022/01/10 01:33:15;;;;;;;1.00;0.90;;;;;;;;;;4998056;28;20109;-20
2022/01/10 01:35:41;;;;;;;2.25;1.13;;;;;;;;;;4998630;28;20134;-21
2022/01/10 01:38:08;;;;;;;1.85;1.20;;;;;;;;;;4998050;28;20092;-21
2022/01/10 01:40:39;;;;;;;1.83;0.70;;;;;;;;;;4998215;28;20049;-22
2022/01/10 01:43:05;;;;;;;2.33;1.10;;;;;;;;;;4997888;28;20033;-20
2022/01/10 01:45:36;;;;;;;2.28;1.20;;;;;;;;;;4998121;28;20104;-21
2022/01/10 01:48:02;;;;;;;0.73;0.70;;;;;;;;;;4997311;28;20349;-20
2022/01/10 01:50:28;;;;;;;0.73;0.63;;;;;;;;;;4997131;28;20402;-20
2022/01/10 01:52:54;;;;;;;1.17;0.95;;;;;;;;;;4997846;28;20035;-21
2022/01/10 01:55:21;;;;;;;1.30;1.20;;;;;;;;;;4997966;28;20042;-21
2022/01/10 01:57:47;;;;;;;1.92;1.33;;;;;;;;;;4997976;28;20037;-20
2022/01/10 02:00:13;;;;;;;1.75;1.10;;;;;;;;;;4998078;28;20030;-21
2022/01/10 02:02:39;;;;;;;1.20;0.90;;;;;;;;;;4997689;28;20026;-21
2022/01/10 02:05:06;;;;;;;2.90;1.05;;;;;;;;;;4997327;28;20489;-20
2022/01/10 02:07:32;;;;;;;1.73;1.10;;;;;;;;;;4997816;28;20069;-20
2022/01/10 02:09:58;;;;;;;1.42;0.90;;;;;;;;;;4997528;28;20034;-21
2022/01/10 02:12:24;;;;;;;1.30;1.20;;;;;;;;;;4997655;28;20030;-21
2022/01/10 02:14:50;;;;;;;0.80;0.70;;;;;;;;;;4997627;28;20048;-21
2022/01/10 02:17:22;;;;;;;1.45;1.13;;;;;;;;;;4997359;28;20026;-21
2022/01/10 02:19:55;;;;;;;1.33;1.02;;;;;;;;;;4997564;28;20026;-21
2022/01/10 02:22:21;;;;;;;1.35;1.10;;;;;;;;;;4997182;28;20054;-21
2022/01/10 02:24:47;;;;;;;2.00;1.23;;;;;;;;;;4997441;28;20022;-21
2022/01/10 02:27:14;;;;;;;1.33;0.90;;;;;;;;;;4997177;28;20454;-20
2022/01/10 02:29:40;;;;;;;1.90;1.00;;;;;;;;;;4997113;28;20058;-20
2022/01/10 02:32:06;;;;;;;1.80;1.02;;;;;;;;;;4996973;28;20098;-20
2022/01/10 02:34:32;;;;;;;2.08;0.80;;;;;;;;;;4997021;28;20023;-21
2022/01/10 02:37:00;;;;;;;1.10;0.80;;;;;;;;;;4997013;28;20080;-22
2022/01/10 02:39:26;;;;;;;1.75;1.15;;;;;;;;;;4997416;28;20036;-22
2022/01/10 02:41:53;;;;;;;1.90;1.08;;;;;;;;;;4996868;28;20027;-20
2022/01/10 02:44:19;;;;;;;1.20;0.90;;;;;;;;;;4997097;28;20022;-20
2022/01/10 02:46:46;;;;;;;1.60;1.00;;;;;;;;;;4996799;28;20026;-20
2022/01/10 02:49:28;;;;;;;1.83;1.00;;;;;;;;;;4996403;28;20057;-20
2022/01/10 02:51:58;;;;;;;0.90;0.90;;;;;;;;;;4996860;28;20037;-21
2022/01/10 02:54:24;;;;;;;1.30;1.10;;;;;;;;;;4996573;28;20034;-20
2022/01/10 02:56:56;;;;;;;1.75;0.90;;;;;;;;;;4996864;28;20030;-20
2022/01/10 02:59:22;;;;;;;;;;;;;;;;;;4997442;28;20038;-21
2022/01/10 03:01:48;;;;;;;1.10;0.80;;;;;;;;;;4995362;28;20337;-21
2022/01/10 03:04:17;;;;;;;1.25;0.95;;;;;;;;;;4995534;28;20041;-20
2022/01/10 03:06:45;;;;;;;0.93;0.90;;;;;;;;;;4996227;28;20126;-20
2022/01/10 03:09:11;;;;;;;3.67;1.05;;;;;;;;;;4996353;28;20054;-20
2022/01/10 03:11:38;;;;;;;1.50;0.95;;;;;;;;;;4996832;28;20037;-21
2022/01/10 03:14:05;;;;;;;1.38;1.00;;;;;;;;;;4996165;28;20084;-20
2022/01/10 03:16:31;;;;;;;2.65;1.73;;;;;;;;;;4996263;28;20054;-20
2022/01/10 03:18:58;;;;;;;2.25;1.80;;;;;;;;;;4996229;28;20038;-21
2022/01/10 03:21:24;;;;;;;1.65;1.05;;;;;;;;;;4995980;28;20450;-21
2022/01/10 03:23:51;;;;;;;1.67;0.95;;;;;;;;;;4996024;28;20038;-20
2022/01/10 03:26:18;;;;;;;1.23;0.90;;;;;;;;;;4996328;28;20357;-21
2022/01/10 03:28:44;;;;;;;1.65;1.10;;;;;;;;;;4996279;28;20049;-21
2022/01/10 03:31:11;;;;;;;1.10;1.00;;;;;;;;;;4995944;28;20095;-20
2022/01/10 03:33:37;;;;;;;1.98;1.10;;;;;;;;;;4995999;28;20030;-20
2022/01/10 03:36:04;;;;;;;1.65;1.23;;;;;;;;;;4996116;28;20569;-20
2022/01/10 03:38:30;;;;;;;1.48;0.93;;;;;;;;;;4995982;28;20049;-21
2022/01/10 03:40:56;;;;;;;2.70;1.20;;;;;;;;;;4995692;28;20088;-20
2022/01/10 03:43:22;;;;;;;1.42;0.88;;;;;;;;;;4995653;28;20113;-21
2022/01/10 03:45:48;;;;;;;2.10;1.15;;;;;;;;;;4995711;28;20026;-20
2022/01/10 03:48:15;;;;;;;0.95;0.82;;;;;;;;;;4995652;28;20030;-21
2022/01/10 03:50:41;;;;;;;1.30;0.90;;;;;;;;;;4995820;28;20165;-21
2022/01/10 03:53:07;;;;;;;1.73;1.17;;;;;;;;;;4996000;28;20526;-21
2022/01/10 03:55:33;;;;;;;1.17;0.80;;;;;;;;;;4995541;28;20045;-21
2022/01/10 03:58:00;;;;;;;1.80;1.05;;;;;;;;;;4995707;28;20133;-20
2022/01/10 04:00:26;;;;;;;1.38;1.00;;;;;;;;;;4995320;28;20496;-20
2022/01/10 04:02:58;;;;;;;4.80;1.13;;;;;;;;;;4995356;28;20033;-22
2022/01/10 04:05:24;;;;;;;1.10;0.90;;;;;;;;;;4995193;28;20073;-21
2022/01/10 04:07:50;;;;;;;1.15;1.00;;;;;;;;;;4995684;28;20113;-21
2022/01/10 04:10:16;;;;;;;1.73;0.93;;;;;;;;;;4995417;28;20026;-21
2022/01/10 04:12:42;;;;;;;1.95;1.50;;;;;;;;;;4994296;28;20457;-20
2022/01/10 04:15:09;;;;;;;1.67;1.17;;;;;;;;;;4995543;28;20037;-22
2022/01/10 04:17:35;;;;;;;1.33;1.00;;;;;;;;;;4995534;28;20053;-21
2022/01/10 04:20:02;;;;;;;2.33;1.48;;;;;;;;;;4995376;28;20026;-21
2022/01/10 04:22:28;;;;;;;1.08;0.98;;;;;;;;;;4995333;28;20037;-21
2022/01/10 04:24:54;;;;;;;1.10;0.75;;;;;;;;;;4995450;28;20070;-21
2022/01/10 04:27:20;;;;;;;1.35;1.23;;;;;;;;;;4994112;28;20026;-21
2022/01/10 04:29:46;;;;;;;1.42;1.33;;;;;;;;;;4995384;28;20378;-20
2022/01/10 04:32:12;;;;;;;2.03;1.38;;;;;;;;;;4995030;28;20094;-20
2022/01/10 04:34:39;;;;;;;1.13;1.00;;;;;;;;;;4995090;28;20030;-21
2022/01/10 04:37:06;;;;;;;1.95;1.13;;;;;;;;;;4994951;28;20453;-20
2022/01/10 04:39:33;;;;;;;1.52;1.42;;;;;;;;;;4995225;28;20018;-20
2022/01/10 04:41:59;;;;;;;2.03;1.45;;;;;;;;;;4994921;28;20335;-21
2022/01/10 04:44:25;;;;;;;2.72;1.13;;;;;;;;;;4995250;28;20023;-21
2022/01/10 04:46:51;;;;;;;1.00;0.90;;;;;;;;;;4995211;28;20081;-21
2022/01/10 04:49:23;;;;;;;1.95;1.15;;;;;;;;;;4995033;28;20053;-20
2022/01/10 04:51:50;;;;;;;1.85;1.08;;;;;;;;;;4994712;28;20110;-20
2022/01/10 04:54:16;;;;;;;2.05;1.00;;;;;;;;;;4994767;28;20443;-21
2022/01/10 04:56:43;;;;;;;1.40;1.02;;;;;;;;;;4994760;28;20034;-21
2022/01/10 04:59:09;;;;;;;1.17;1.10;;;;;;;;;;4994756;28;20041;-21
2022/01/10 05:01:36;;;;;;;2.35;1.10;;;;;;;;;;4994573;28;20041;-20
2022/01/10 05:04:02;;;;;;;1.17;1.00;;;;;;;;;;4994670;28;20357;-20
2022/01/10 05:06:28;;;;;;;2.00;1.08;;;;;;;;;;4994201;28;20530;-20
2022/01/10 05:08:54;;;;;;;1.95;1.05;;;;;;;;;;4994364;28;20038;-21
2022/01/10 05:11:20;;;;;;;1.10;0.85;;;;;;;;;;4993223;28;20064;-20
2022/01/10 05:13:47;;;;;;;1.80;0.98;;;;;;;;;;4994636;28;20399;-21
2022/01/10 05:16:14;;;;;;;1.85;1.10;;;;;;;;;;4994524;28;20066;-21
2022/01/10 05:18:41;;;;;;;0.63;0.63;;;;;;;;;;4994187;28;20482;-22
2022/01/10 05:21:07;;;;;;;3.38;1.33;;;;;;;;;;4994257;28;20432;-23
2022/01/10 05:23:33;;;;;;;6.75;1.30;;;;;;;;;;4998165;28;20449;-22
2022/01/10 05:25:59;;;;;;;9.00;1.63;;;;;;;;;;4998136;28;20030;-22
2022/01/10 05:28:26;;;;;;;10.25;1.83;;;;;;;;;;4997979;28;20030;-22
2022/01/10 05:30:54;;;;;;;10.20;1.50;;;;;;;;;;4998433;28;20109;-22
2022/01/10 05:33:20;;;;;;;3.22;1.13;;;;;;;;;;4997668;28;20073;-22
2022/01/10 05:35:46;;;;;;;7.07;1.65;;;;;;;;;;4998158;28;20026;-22
2022/01/10 05:38:13;;;;;;;4.38;1.30;;;;;;;;;;4998067;28;20076;-21
2022/01/10 05:40:40;;;;;;;5.68;1.08;;;;;;;;;;4997703;28;20035;-22
2022/01/10 05:43:06;;;;;;;2.63;1.02;;;;;;;;;;4997885;28;20399;-21
2022/01/10 05:45:32;;;;;;;3.78;1.20;;;;;;;;;;4997716;28;20026;-24
2022/01/10 05:48:07;;;;;;;7.30;1.25;;;;;;;;;;4997751;28;20033;-21
2022/01/10 05:50:35;;;;;;;9.50;1.33;;;;;;;;;;4981676;28;20049;-22
2022/01/10 05:53:01;;;;;;;1.60;1.05;;;;;;;;;;4997393;28;20032;-21
2022/01/10 05:55:28;;;;;;;7.47;1.23;;;;;;;;;;4997483;28;20123;-21
2022/01/10 05:57:54;;;;;;;6.72;1.48;;;;;;;;;;4997710;28;20097;-23
2022/01/10 06:03:21;;;;;;;9.23;1.45;;;;;;;;;;5348563;22;20333;-31
2022/01/10 06:05:47;;;;;;;2.95;1.17;;;;;;;;;;4997588;28;20026;-30
2022/01/10 06:08:14;;;;;;;9.90;1.13;;;;;;;;;;4997776;28;20353;-31
2022/01/10 06:10:40;;;;;;;4.50;1.40;;;;;;;;;;4997535;28;20031;-31
2022/01/10 06:13:06;;;;;;;6.15;1.60;;;;;;;;;;4997024;28;20026;-31
2022/01/10 06:15:32;;;;;;;5.53;1.52;;;;;;;;;;4996962;28;20113;-31
2022/01/10 06:17:59;;;;;;;5.20;1.60;;;;;;;;;;4997406;28;20097;-31
2022/01/10 06:20:25;;;;;;;11.45;1.65;;;;;;;;;;4997429;28;20453;-31
2022/01/10 06:22:51;;;;;;;7.72;1.52;;;;;;;;;;4996903;28;20038;-32
2022/01/10 06:25:20;;;;;;;6.00;1.30;;;;;;;;;;4997433;28;20022;-32
2022/01/10 06:27:46;;;;;;;6.22;1.48;;;;;;;;;;4996827;28;20019;-32
2022/01/10 06:30:12;;;;;;;13.30;1.70;;;;;;;;;;4997686;28;20400;-31
2022/01/10 06:32:39;;;;;;;5.68;2.03;;;;;;;;;;4996512;28;20057;-31
2022/01/10 06:35:06;;;;;;;11.73;2.08;;;;;;;;;;4996793;28;20093;-29
2022/01/10 06:37:32;;;;;;;25.42;2.30;;;;;;;;;;4996704;28;20030;-30
2022/01/10 06:39:58;;;;;;;14.35;2.40;;;;;;;;;;4996874;28;20359;-31
2022/01/10 06:42:24;;;;;;;6.28;1.60;;;;;;;;;;4996776;28;20018;-31
2022/01/10 06:44:51;;;;;;;18.42;3.10;;;;;;;;;;4997054;28;20022;-31
2022/01/10 06:47:17;;;;;;;11.60;1.88;;;;;;;;;;4997041;28;20069;-30
2022/01/10 06:49:43;;;;;;;5.63;2.75;;;;;;;;;;4995499;28;20041;-30
2022/01/10 06:52:09;;;;;;;23.50;2.03;;;;;;;;;;4996674;28;20393;-31
2022/01/10 06:54:35;;;;;;;11.20;2.00;;;;;;;;;;4995459;28;20361;-29
2022/01/10 06:57:02;;;;;;;11.32;2.08;;;;;;;;;;4996511;28;20080;-30
2022/01/10 06:59:29;;;;;;;7.25;1.98;;;;;;;;;;4996417;28;20337;-29
2022/01/10 07:01:57;;;;;;;17.00;3.63;;;;;;;;;;4996086;28;20018;-31
2022/01/10 07:04:23;;;;;;;8.32;2.03;;;;;;;;;;4996132;28;20133;-31
2022/01/10 07:06:50;;;;;;;16.17;2.00;;;;;;;;;;4996164;28;20097;-30
2022/01/10 07:09:16;;;;;;;17.80;2.25;;;;;;;;;;4996166;28;20330;-30
2022/01/10 07:11:42;;;;;;;12.30;2.88;;;;;;;;;;4994907;28;20099;-30
2022/01/10 07:14:11;;;;;;;16.75;2.10;;;;;;;;;;4996042;28;20030;-31
2022/01/10 07:16:37;;;;;;;7.72;1.85;;;;;;;;;;4996264;28;20450;-30
2022/01/10 07:19:03;;;;;;;17.20;2.58;;;;;;;;;;4995259;28;20396;-30
2022/01/10 07:21:30;;;;;;;19.92;2.13;;;;;;;;;;4995444;28;20357;-30
2022/01/10 07:23:56;;;;;;;12.20;1.88;;;;;;;;;;4994737;28;20032;-30
2022/01/10 07:26:22;;;;;;;14.02;2.72;;;;;;;;;;4995940;28;20034;-31
2022/01/10 07:28:48;;;;;;;17.88;2.33;;;;;;;;;;4995683;28;20049;-30
2022/01/10 07:31:14;;;;;;;14.70;2.92;;;;;;;;;;4995907;28;20045;-30
2022/01/10 07:33:41;;;;;;;21.10;2.50;;;;;;;;;;4995498;28;20157;-30
2022/01/10 07:36:07;;;;;;;14.77;3.10;;;;;;;;;;4995784;28;20022;-30
2022/01/10 07:38:35;;;;;;;19.27;2.72;;;;;;;;;;4995616;28;20034;-30
2022/01/10 07:41:05;;;;;;;14.45;2.97;;;;;;;;;;4995269;28;20100;-30
2022/01/10 07:43:32;;;;;;;17.27;2.10;;;;;;;;;;4995469;28;20024;-31
2022/01/10 07:45:59;;;;;;;10.80;1.92;;;;;;;;;;4994670;28;20022;-31
2022/01/10 07:48:27;;;;;;;12.43;2.40;;;;;;;;;;4995234;28;20030;-30
2022/01/10 07:50:53;;;;;;;10.82;2.58;;;;;;;;;;4995216;28;20085;-31
2022/01/10 07:53:19;;;;;;;11.57;2.47;;;;;;;;;;4995167;28;20117;-31
2022/01/10 07:55:46;;;;;;;13.60;2.22;;;;;;;;;;4995325;28;20026;-29
2022/01/10 07:58:12;;;;;;;11.27;2.28;;;;;;;;;;4994323;28;20469;-30
2022/01/10 08:00:39;;;;;;;8.75;2.08;;;;;;;;;;4995374;28;20038;-30
2022/01/10 08:03:05;;;;;;;22.85;2.35;;;;;;;;;;4995086;28;20116;-30
2022/01/10 08:05:31;;;;;;;4.80;1.48;;;;;;;;;;4995644;28;20125;-30
2022/01/10 08:07:57;;;;;;;11.20;3.35;;;;;;;;;;4995512;28;20102;-31
2022/01/10 08:10:24;;;;;;;10.73;1.95;;;;;;;;;;4993662;28;20341;-30
2022/01/10 08:12:50;;;;;;;8.60;1.80;;;;;;;;;;4994777;28;20041;-31
2022/01/10 08:15:16;;;;;;;31.23;2.40;;;;;;;;;;4994992;28;20047;-31
2022/01/10 08:17:42;;;;;;;7.70;1.80;;;;;;;;;;4994734;28;20058;-30
2022/01/10 08:20:10;;;;;;;11.07;2.53;;;;;;;;;;4994721;28;20034;-32
2022/01/10 08:22:37;;;;;;;7.43;1.95;;;;;;;;;;4994644;28;20057;-31
2022/01/10 08:25:04;;;;;;;5.93;1.58;;;;;;;;;;4994651;28;20038;-30
2022/01/10 08:27:30;;;;;;;12.32;2.45;;;;;;;;;;4993745;28;20034;-31
2022/01/10 08:29:56;;;;;;;14.60;2.20;;;;;;;;;;4994648;28;20030;-30
2022/01/10 08:32:22;;;;;;;8.07;2.20;;;;;;;;;;4994398;28;20034;-30
2022/01/10 08:34:49;;;;;;;25.00;3.83;;;;;;;;;;4994463;28;20054;-30
2022/01/10 08:37:15;;;;;;;18.15;2.38;;;;;;;;;;4993693;28;20026;-31
2022/01/10 08:39:41;;;;;;;17.02;2.70;;;;;;;;;;4994571;28;20034;-32
2022/01/10 08:42:07;;;;;;;27.33;2.30;;;;;;;;;;4994490;28;20460;-31
2022/01/10 08:44:33;;;;;;;15.35;1.92;;;;;;;;;;4994474;28;20026;-31
2022/01/10 08:47:01;;;;;;;9.70;2.10;;;;;;;;;;4993418;28;20092;-31
2022/01/10 08:49:28;;;;;;;19.17;5.00;;;;;;;;;;4994700;28;20037;-30
2022/01/10 08:51:55;;;;;;;12.05;1.92;;;;;;;;;;4977280;28;20034;-30
2022/01/10 08:54:24;;;;;;;14.52;2.78;;;;;;;;;;4994613;28;20385;-30
2022/01/10 08:56:51;;;;;;;15.95;2.90;;;;;;;;;;4997495;28;20105;-30
2022/01/10 08:59:17;;;;;;;15.30;1.92;;;;;;;;;;4998292;28;20042;-30
2022/01/10 09:01:43;;;;;;;15.23;2.80;;;;;;;;;;4997929;28;20026;-31
2022/01/10 09:04:16;;;;;;;21.42;3.25;;;;;;;;;;4998271;28;20053;-31
2022/01/10 09:06:43;;;;;;;21.30;2.53;;;;;;;;;;4997040;28;20026;-31
2022/01/10 09:09:09;;;;;;;13.70;2.30;;;;;;;;;;4996961;28;20105;-30
2022/01/10 09:11:35;;;;;;;11.35;3.22;;;;;;;;;;4998566;28;20029;-32
2022/01/10 09:14:03;;;;;;;11.85;2.10;;;;;;;;;;4997867;28;20137;-30
2022/01/10 09:16:29;;;;;;;20.33;2.38;;;;;;;;;;4998148;28;20041;-31
2022/01/10 09:18:55;;;;;;;7.53;2.20;;;;;;;;;;4998036;28;20480;-32
2022/01/10 09:21:23;;;;;;;9.82;2.05;;;;;;;;;;4997900;28;20081;-31
2022/01/10 09:23:49;;;;;;;16.98;3.08;;;;;;;;;;4996951;28;20042;-31
2022/01/10 09:26:16;;;;;;;12.88;2.55;;;;;;;;;;4997950;28;20425;-30
2022/01/10 09:28:43;;;;;;;11.63;2.58;;;;;;;;;;4996816;28;20045;-31
2022/01/10 09:31:10;;;;;;;16.10;2.10;;;;;;;;;;4997788;28;20030;-30
2022/01/10 09:33:36;;;;;;;16.30;2.38;;;;;;;;;;4997630;28;20102;-30
2022/01/10 09:36:04;;;;;;;8.43;1.90;;;;;;;;;;4997567;28;20031;-31
2022/01/10 09:38:30;;;;;;;16.58;2.78;;;;;;;;;;4996692;28;20037;-31
2022/01/10 09:40:56;;;;;;;12.85;1.85;;;;;;;;;;4997479;28;20034;-32
2022/01/10 09:43:23;;;;;;;10.48;1.73;;;;;;;;;;4997492;28;20053;-30
2022/01/10 09:45:54;;;;;;;10.05;2.08;;;;;;;;;;4996494;28;20113;-31
2022/01/10 09:48:21;;;;;;;20.45;3.95;;;;;;;;;;4997618;28;20069;-31
2022/01/10 09:50:47;;;;;;;15.63;2.58;;;;;;;;;;4997991;28;20343;-31
2022/01/10 09:53:14;;;;;;;19.08;2.33;;;;;;;;;;4997546;28;20038;-30
2022/01/10 09:55:40;;;;;;;11.85;2.97;;;;;;;;;;4997764;28;20026;-30
2022/01/10 09:58:07;;;;;;;12.27;1.92;;;;;;;;;;4997425;28;20365;-31
2022/01/10 10:00:33;;;;;;;10.50;2.30;;;;;;;;;;4996311;28;20031;-30
2022/01/10 10:02:59;;;;;;;13.65;1.98;;;;;;;;;;4997418;28;20354;-30
2022/01/10 10:05:26;;;;;;;17.23;2.33;;;;;;;;;;4996250;28;20048;-30
2022/01/10 10:07:52;;;;;;;9.68;1.77;;;;;;;;;;4997085;28;20023;-30
2022/01/10 10:10:19;;;;;;;8.05;1.65;;;;;;;;;;4996328;28;20026;-29
2022/01/10 10:12:49;;;;;;;11.50;2.28;;;;;;;;;;4997219;28;20037;-30
2022/01/10 10:15:17;;;;;;;14.18;2.55;;;;;;;;;;4997274;28;20032;-30
2022/01/10 10:17:44;;;;;;;6.65;2.05;;;;;;;;;;4997366;28;20018;-30
2022/01/10 10:20:11;;;;;;;8.90;2.40;;;;;;;;;;4996934;28;20109;-29
2022/01/10 10:22:41;;;;;;;15.15;2.20;;;;;;;;;;4996893;28;20046;-30
2022/01/10 10:25:11;;;;;;;16.98;2.75;;;;;;;;;;4997315;28;20022;-29
2022/01/10 10:27:42;;;;;;;8.40;2.05;;;;;;;;;;4997042;28;20424;-30
2022/01/10 10:30:16;;;;;;;17.60;2.17;;;;;;;;;;4997265;28;20061;-30
2022/01/10 10:32:43;;;;;;;13.43;2.00;;;;;;;;;;4996876;28;20030;-31
2022/01/10 10:35:10;;;;;;;14.73;2.00;;;;;;;;;;4995746;28;20030;-30
2022/01/10 10:37:37;;;;;;;9.10;2.25;;;;;;;;;;4996700;28;20022;-31
2022/01/10 10:40:05;;;;;;;20.15;2.92;;;;;;;;;;4996617;28;20038;-30
2022/01/10 10:42:33;;;;;;;13.73;2.53;;;;;;;;;;4996583;28;20491;-29
2022/01/10 10:45:02;;;;;;;16.63;2.33;;;;;;;;;;4996655;28;20027;-31
2022/01/10 10:47:28;;;;;;;9.90;2.30;;;;;;;;;;4996825;28;20022;-31
2022/01/10 10:49:59;;;;;;;16.83;2.88;;;;;;;;;;4995378;28;20374;-31
2022/01/10 10:52:31;;;;;;;15.27;2.70;;;;;;;;;;4996764;28;20097;-30
2022/01/10 10:55:01;;;;;;;15.50;2.35;;;;;;;;;;4996335;28;20520;-29
2022/01/10 10:57:27;;;;;;;11.13;1.98;;;;;;;;;;4996203;28;20023;-32
2022/01/10 10:59:54;;;;;;;11.80;2.15;;;;;;;;;;4996438;28;20039;-30
2022/01/10 11:02:21;;;;;;;10.00;2.40;;;;;;;;;;4996470;28;20050;-30
2022/01/10 11:04:47;;;;;;;12.30;2.88;;;;;;;;;;4996163;28;20109;-31
2022/01/10 11:07:16;;;;;;;10.73;2.55;;;;;;;;;;4994949;28;20042;-31
2022/01/10 11:09:43;;;;;;;11.18;2.15;;;;;;;;;;4995956;28;20061;-31
2022/01/10 11:12:09;;;;;;;11.65;2.30;;;;;;;;;;4996053;28;20087;-31
2022/01/10 11:14:36;;;;;;;16.05;2.75;;;;;;;;;;4995909;28;20114;-32
2022/01/10 11:17:02;;;;;;;19.35;2.60;;;;;;;;;;4995654;28;20034;-30
2022/01/10 11:19:28;;;;;;;13.98;2.17;;;;;;;;;;4994707;28;20033;-31
2022/01/10 11:22:02;;;;;;;15.15;2.15;;;;;;;;;;4995536;28;20042;-31
2022/01/10 11:24:51;;;;;;;8.32;2.83;;;;;;;;;;4996141;28;20030;-30
2022/01/10 11:27:37;;;;;;;10.05;2.60;;;;;;;;;;4995742;28;20129;-30
2022/01/10 11:30:22;;;;;;;7.93;1.90;;;;;;;;;;4996059;28;20030;-31
2022/01/10 11:32:52;;;;;;;15.65;2.65;;;;;;;;;;4995731;28;20099;-30
2022/01/10 11:35:19;;;;;;;13.80;2.45;;;;;;;;;;4995734;28;20106;-30
2022/01/10 11:37:47;;;;;;;6.95;1.98;;;;;;;;;;4995584;28;20586;-30
2022/01/10 11:40:15;;;;;;;16.30;2.97;;;;;;;;;;4995863;28;20026;-31
2022/01/10 11:42:52;;;;;;;15.77;3.58;;;;;;;;;;4996475;28;20030;-31
2022/01/10 11:45:18;;;;;;;14.05;2.67;;;;;;;;;;4996337;28;20022;-30
2022/01/10 11:48:11;;;;;;;12.75;3.35;;;;;;;;;;4995472;28;20034;-30
2022/01/10 11:50:40;;;;;;;14.85;2.20;;;;;;;;;;4986873;28;20045;-29
2022/01/10 11:53:08;;;;;;;10.85;2.85;;;;;;;;;;4995363;28;20105;-30
2022/01/10 11:55:55;;;;;;;9.20;2.40;;;;;;;;;;4995109;28;20331;-29
2022/01/10 11:58:23;;;;;;;14.07;2.88;;;;;;;;;;4995365;28;20026;-30
2022/01/10 12:00:51;;;;;;;16.27;3.15;;;;;;;;;;4995051;28;20092;-29
2022/01/10 12:03:21;;;;;;;17.33;2.88;;;;;;;;;;4994847;28;20043;-30
2022/01/10 12:05:48;;;;;;;10.55;2.00;;;;;;;;;;4994268;28;20116;-31
2022/01/10 12:08:15;;;;;;;13.50;2.10;;;;;;;;;;4994828;28;20026;-33
2022/01/10 12:10:41;;;;;;;11.68;2.30;;;;;;;;;;4994769;28;20120;-31
2022/01/10 12:13:13;;;;;;;19.10;4.07;;;;;;;;;;4995142;28;20038;-30
2022/01/10 12:15:39;;;;;;;10.85;2.20;;;;;;;;;;4995406;28;20092;-30
2022/01/10 12:18:07;;;;;;;10.43;2.20;;;;;;;;;;4994895;28;20110;-31
2022/01/10 12:20:33;;;;;;;15.10;2.28;;;;;;;;;;4995017;28;20364;-30
2022/01/10 12:23:00;;;;;;;19.77;2.67;;;;;;;;;;4995145;28;20410;-30
2022/01/10 12:25:28;;;;;;;13.40;2.15;;;;;;;;;;4994586;28;20030;-30
2022/01/10 12:27:56;;;;;;;14.18;2.90;;;;;;;;;;4994882;28;20038;-30
2022/01/10 12:30:25;;;;;;;11.27;2.15;;;;;;;;;;4993053;28;20108;-31
2022/01/10 12:32:52;;;;;;;14.82;2.65;;;;;;;;;;4994454;28;20032;-30
2022/01/10 12:35:19;;;;;;;11.57;2.55;;;;;;;;;;4994648;28;20097;-30
2022/01/10 12:37:46;;;;;;;18.42;3.88;;;;;;;;;;4994678;28;20116;-30
2022/01/10 12:40:14;;;;;;;15.25;2.67;;;;;;;;;;4994477;28;20046;-31
2022/01/10 12:42:40;;;;;;;22.63;3.35;;;;;;;;;;4994542;28;20022;-30
2022/01/10 12:45:07;;;;;;;8.13;2.67;;;;;;;;;;4993631;28;20128;-31
2022/01/10 12:47:34;;;;;;;10.80;4.03;;;;;;;;;;4993139;28;20038;-32
2022/01/10 12:50:00;;;;;;;16.88;2.30;;;;;;;;;;4993344;28;20038;-34
2022/01/10 12:52:26;;;;;;;13.55;2.33;;;;;;;;;;4994792;28;20387;-32
2022/01/10 12:54:53;;;;;;;15.32;2.45;;;;;;;;;;4994457;28;20045;-31
2022/01/10 12:57:19;;;;;;;11.65;2.80;;;;;;;;;;4994570;28;20458;-31
2022/01/10 12:59:46;;;;;;;17.10;3.33;;;;;;;;;;4994236;28;20054;-31
2022/01/10 13:02:13;;;;;;;13.60;3.03;;;;;;;;;;4994325;28;20030;-31
2022/01/10 13:04:41;;;;;;;23.35;2.97;;;;;;;;;;4994204;28;20042;-31
2022/01/10 13:07:14;;;;;;;14.70;3.20;;;;;;;;;;4993457;28;20035;-31
2022/01/10 13:09:40;;;;;;;16.42;3.25;;;;;;;;;;4994277;28;20076;-31
2022/01/10 13:12:26;;;;;;;20.20;3.30;;;;;;;;;;4994571;28;20485;-31
2022/01/10 13:14:53;;;;;;;16.35;2.53;;;;;;;;;;4994351;28;20070;-31
2022/01/10 13:17:24;;;;;;;22.48;3.80;;;;;;;;;;4994144;28;20463;-31
2022/01/10 13:20:01;;;;;;;18.52;3.70;;;;;;;;;;4994266;28;20054;-31
2022/01/10 13:22:32;;;;;;;15.43;3.17;;;;;;;;;;4994048;28;20026;-30
2022/01/10 13:24:58;;;;;;;11.10;3.47;;;;;;;;;;4993216;28;20034;-31
2022/01/10 13:27:32;;;;;;;13.32;2.75;;;;;;;;;;4994289;28;20026;-30
2022/01/10 13:30:10;;;;;;;22.65;3.22;;;;;;;;;;4994400;28;20026;-31
2022/01/10 13:32:37;;;;;;;17.75;3.75;;;;;;;;;;4994367;28;20037;-32
2022/01/10 13:35:07;;;;;;;23.23;2.70;;;;;;;;;;4994258;28;20506;-31
2022/01/10 13:37:41;;;;;;;14.00;3.93;;;;;;;;;;4994612;28;20380;-32
2022/01/10 13:40:12;;;;;;;18.45;2.78;;;;;;;;;;4993797;28;20030;-30
2022/01/10 13:42:38;;;;;;;;;;;;;;;;;;4994077;28;20057;-30
2022/01/10 13:45:05;;;;;;;15.55;2.72;;;;;;;;;;4997563;28;19910;-29
2022/01/10 13:47:47;;;;;;;21.67;3.53;;;;;;;;;;4996608;28;20042;-30
2022/01/10 13:50:17;;;;;;;25.98;3.50;;;;;;;;;;4997940;28;20034;-31
2022/01/10 13:52:58;;;;;;;38.65;4.30;;;;;;;;;;4997548;28;20034;-30
2022/01/10 13:55:24;;;;;;;;;;;;;;;;;;4997993;28;20139;-31
2022/01/10 13:57:50;;;;;;;17.45;2.85;;;;;;;;;;4997435;28;19910;-31
2022/01/10 14:00:18;;;;;;;21.23;3.63;;;;;;;;;;4997892;28;20030;-31
2022/01/10 14:02:45;;;;;;;27.05;4.13;;;;;;;;;;4997116;28;20058;-31
2022/01/10 14:05:21;;;;;;;15.80;2.75;;;;;;;;;;4997738;28;20026;-31
2022/01/10 14:07:48;;;;;;;20.63;5.13;;;;;;;;;;4997726;28;20104;-30
2022/01/10 14:10:15;;;;;;;19.48;3.53;;;;;;;;;;4997413;28;20303;-30
2022/01/10 14:12:42;;;;;;;16.38;2.97;;;;;;;;;;4997554;28;20026;-30
2022/01/10 14:15:09;;;;;;;22.95;3.78;;;;;;;;;;4997252;28;20058;-30
2022/01/10 14:17:35;;;;;;;34.65;4.80;;;;;;;;;;4997020;28;20022;-30
2022/01/10 14:20:02;;;;;;;25.60;3.63;;;;;;;;;;4996973;28;20156;-31
2022/01/10 14:22:28;;;;;;;26.00;4.45;;;;;;;;;;4996747;28;20097;-31
2022/01/10 14:24:55;;;;;;;23.67;3.58;;;;;;;;;;4997230;28;20037;-31
2022/01/10 14:27:21;;;;;;;29.65;4.07;;;;;;;;;;4996922;28;20022;-32
2022/01/10 14:29:48;;;;;;;20.27;3.60;;;;;;;;;;4997154;28;20038;-31
2022/01/10 14:32:15;;;;;;;24.05;5.60;;;;;;;;;;4996632;28;20035;-31
2022/01/10 14:34:41;;;;;;;30.25;4.40;;;;;;;;;;4996891;28;20026;-31
2022/01/10 14:37:08;;;;;;;23.13;3.58;;;;;;;;;;4996833;28;20026;-32
2022/01/10 14:39:34;;;;;;;23.90;3.53;;;;;;;;;;4996889;28;20037;-30
2022/01/10 14:42:00;;;;;;;20.65;3.75;;;;;;;;;;4996702;28;20034;-30
2022/01/10 14:44:26;;;;;;;16.83;3.55;;;;;;;;;;4996914;28;20022;-30
2022/01/10 14:46:53;;;;;;;21.15;3.40;;;;;;;;;;4996864;28;20503;-31
2022/01/10 14:49:19;;;;;;;29.48;6.60;;;;;;;;;;4996811;28;20037;-31
2022/01/10 14:51:47;;;;;;;21.83;3.88;;;;;;;;;;4996467;28;20158;-30